Tiempo atmosférico en la estación meteorológica de Calamocha, Teruel (890 m.)



Fecha
DESCASC
Temp. máxima en grados centígrados (hora)
DESCASC
Temp. mínima en grados centígrados (hora)
DESCASC
Temp. media en grados centígrados
DESCASC
Racha de viento máxima en m/sg (hora)
DESCASC
Velocidad máxima media en intervalos de 10 minutos(hora)
DESCASC
Precipitaciones diarias en mm
DESCASC
Precipitaciones de 00:00 a 06:00 en mm
DESCASC
Precipitaciones de 06:00 a 12:00 en mm
DESCASC
Precipitaciones de 12:00 a 18:00 en mm
DESCASC
Precipitaciones de 18:00 a 24:00 en mm
DESCASC
30-11-2020 12.3 (16:00) -2 (07:30) 5.2 3.06 (10:20) 1.67 (07:50) 0 0 0 0 0
29-11-2020 13.9 (16:10) 0.9 (00:00) 7.4 4.72 (15:20) 2.78 (15:20) 0 0 0 0 0
28-11-2020 11.1 (14:10) 3.4 (00:00) 7.3 7.78 (02:10) 3.61 (02:10) 0 0 0 0 0
27-11-2020 11.4 (12:30) 7 (00:00) 9.2 13.33 (13:10) 8.06 (13:10) 2.8 0 0 0.4 2.4
26-11-2020 11.5 (14:30) 0.8 (00:00) 6.2 10 (14:20) 7.5 (13:40) 0.6 0 0.6 0 0
25-11-2020 12.3 (13:10) -4.2 (-00:0) 4.1 6.94 (16:10) 4.17 (16:10) 0 0 0 0 0
24-11-2020 14.7 (16:30) -4 (-00:0) 5.3 4.72 (10:20) 3.06 (10:20) 0 0 0 0 0
23-11-2020 15.5 (15:40) -4.6 (-00:0) 5.5 3.33 (11:10) 1.94 (11:00) 0 0 0 0 0
22-11-2020 15.4 (15:20) -3.2 (-00:0) 6.1 5 (08:50) 3.61 (09:00) 0 0 0 0 0
21-11-2020 15.7 (15:50) -4.1 (-00:0) 5.8 4.44 (02:30) 3.06 (09:10) 0 0 0 0 0
20-11-2020 12.8 (14:20) -1.3 (-00:0) 5.8 9.17 (15:30) 6.11 (15:40) 0 0 0 0 0
19-11-2020 17.3 (13:30) 1 (00:00) 9.1 9.44 (17:30) 5 (17:30) 0 0 0 0 0
18-11-2020 21.1 (15:30) 0.7 (00:00) 10.9 4.17 (16:00) 2.5 (10:00) 0 0 0 0 0
17-11-2020 19.1 (17:00) 1.7 (00:00) 10.4 3.89 (11:40) 2.5 (11:50) 0 0 0 0 0
16-11-2020 14.9 (16:20) 5.3 (00:00) 10.1 6.94 (06:50) 4.17 (06:50) 1.4 0.6 0.8 0 0
15-11-2020 17.4 (14:00) 6.7 (00:00) 12 11.11 (15:40) 6.39 (14:30) 0 0 0 0 0
14-11-2020 13.7 (15:20) 4.8 (00:00) 9.3 3.89 (15:40) 2.5 (16:30) 0 0 0 0 0
13-11-2020 17.1 (15:40) 4.4 (00:00) 10.8 3.61 (11:50) 2.5 (02:30) 0 0 0 0 0
12-11-2020 15.2 (15:40) 3.3 (00:00) 9.2 4.44 (18:10) 3.33 (18:10) 0 0 0 0 0
11-11-2020 17.9 (16:20) 0.8 (00:00) 9.3 4.17 (08:00) 3.33 (08:00) 0 0 0 0 0
10-11-2020 15.7 (15:30) 2.1 (00:00) 8.9 4.72 (16:30) 2.5 (16:30) 0 0 0 0 0
09-11-2020 15.5 (16:40) 3.9 (00:00) 9.7 6.11 (15:40) 3.89 (15:30) 0 0 0 0 0
08-11-2020 18.1 (16:30) 0.8 (00:00) 9.5 4.17 (17:30) 1.94 (17:30) 0 0 0 0 0
07-11-2020 15 (14:50) 6.8 (00:00) 10.9 13.33 (04:50) 9.72 (04:50) 14.2 7 7.2 0 0
06-11-2020 18.6 (12:30) 7.4 (00:00) 13 12.5 (15:20) 8.06 (15:20) 0.2 0 0.2 0 0
05-11-2020 12.1 (12:00) 5.6 (00:00) 8.9 10.83 (17:50) 7.78 (17:10) 2.6 0 0 0 2.6
04-11-2020 6.7 (00:00) 4.9 (00:00) 5.8 6.94 (23:50) 3.61 (00:10) 4.8 0.8 0.2 3.6 0.2
03-11-2020 11.3 (09:30) 6.7 (00:00) 9 12.78 (15:50) 6.39 (14:20) 0.6 0 0 0 0.6
02-11-2020 23 (15:50) 2.4 (00:00) 12.7 5.56 (13:50) 3.61 (08:40) 0 0 0 0 0

Gráficas

Temp. máximas Temp. mínimas Temp. medias Precipitaciones Rachas de viento máximas Velocidades máximas media en intervalos de 10 minutos

Datos horarios

Fecha y hora oficial Temperatura (ºC) Velocidad del viento (km/h) Dirección del viento Racha (km/h) Dirección de racha Precipitación (mm) Presión (hPa) Tendencia (hPa) Humedad (%)
2020-12-01 23:00:00 4.9 0 Calma 6 Sudoeste 0 916.2 -- 73
2020-12-01 22:00:00 5.3 3 Norte 7 Noroeste 0 916.6 -- 69
2020-12-01 21:00:00 5.5 4 Norte 10 Nordeste 0 916.9 -- 70
2020-12-01 20:00:00 6.6 3 Noroeste 18 Norte 0 917.4 -- 63
2020-12-01 19:00:00 7.8 9 Norte 21 Noroeste 0 917.3 -- 56
2020-12-01 18:00:00 8.1 4 Noroeste 13 Norte 0 917.2 -- 59
2020-12-01 17:00:00 9.3 6 Noroeste 26 Noroeste 0 917.4 -- 58
2020-12-01 16:00:00 10.4 10 Noroeste 23 Noroeste 0 917.5 -- 54
2020-12-01 15:00:00 11 9 Norte 18 Noroeste 0 918 -- 49
2020-12-01 14:00:00 9.3 5 Norte 10 Norte 0 918.9 -- 58
2020-12-01 13:00:00 6.1 2 Sudeste 9 Sur 0 919.5 -- 85
2020-12-01 12:00:00 2.2 4 Sudoeste 12 Sur 0 920.6 -- 100
2020-12-01 11:00:00 0.9 6 Sur 11 Sur 0 921.1 -- 99
2020-12-01 10:00:00 0.5 4 Sur 10 Sur 0 921.1 -- 100
2020-12-01 09:00:00 0.1 5 Sur 9 Sur 0 921.4 -- 99
2020-12-01 08:00:00 -0.5 5 Sudeste 9 Sur 0 921.3 -- 99
2020-12-01 07:00:00 -1.2 4 Sudeste 10 Sur 0 921.1 -- 99
2020-12-01 06:00:00 -0.5 4 Sudoeste 7 Sur 0 921.1 -- 99
2020-12-01 05:00:00 -0.4 2 Oeste 7 Sur 0 921.4 -- 99
2020-12-01 04:00:00 -0.5 3 Sudeste 5 Sur 0 921.8 -- 98
2020-12-01 03:00:00 -1.1 3 Sur 5 Sur 0 922 -- 98
2020-12-01 02:00:00 -1.1 0 Calma 4 Norte 0 922.3 -- 96
2020-12-01 01:00:00 -0.4 2 Sudeste 5 Sur 0 922.3 -- 95
2020-12-01 00:00:00 0.2 0 Calma 5 Sur 0 922.5 -- 93
2020-11-30 23:00:00 1.4 2 Sur 4 Sur 0 922.4 -- 91
2020-11-30 22:00:00 2.7 0 Calma 3 Sudoeste 0 922.2 -- 93
2020-11-30 21:00:00 3.8 0 Calma 4 Noroeste 0 921.9 -- 91
2020-11-30 20:00:00 5.1 3 Noroeste 4 Norte 0 921.6 -- 87
2020-11-30 19:00:00 6.4 3 Oeste 4 Norte 0 921.3 -- 83
2020-11-30 18:00:00 8.8 3 Noroeste 5 Norte 0 920.7 -- 76
2020-11-30 17:00:00 10.5 3 Norte 5 Norte 0 920.6 -- 72
2020-11-30 16:00:00 12.3 2 Noroeste 8 Norte 0 920.3 -- 62
2020-11-30 15:00:00 11.9 3 Norte 6 Sudoeste 0 920.5 -- 65
2020-11-30 14:00:00 11 3 Oeste 8 Sudoeste 0 920.9 -- 71
2020-11-30 13:00:00 9.8 5 Sudoeste 10 Sudoeste 0 921.2 -- 76
2020-11-30 12:00:00 7.9 4 Sur 8 Sudeste 0 921.8 -- 83
2020-11-30 11:00:00 4.5 4 Sur 11 Sur 0 922.1 -- 91
2020-11-30 10:00:00 1.5 5 Sur 9 Sur 0 922 -- 96
2020-11-30 09:00:00 -0.9 2 Sudoeste 6 Sudoeste 0 921.5 -- 98
2020-11-30 08:00:00 -1.8 5 Sudeste 8 Sudeste 0 921 -- 96
2020-11-30 07:00:00 -1.9 3 Norte 6 Sur 0 920.5 -- 96
2020-11-30 06:00:00 -1.4 4 Sur 6 Sur 0 920.2 -- 96
2020-11-30 05:00:00 -1.3 3 Oeste 6 Sudeste 0 919.7 -- 95
2020-11-30 04:00:00 -1.2 2 Este 4 Nordeste 0 919.7 -- 96
2020-11-30 03:00:00 -0.5 0 Calma 8 Sudoeste 0 919.6 -- 94
2020-11-30 02:00:00 -0.3 4 Sudeste 6 Sur 0 919.3 -- 95
2020-11-30 01:00:00 0.3 5 Sudeste 6 Sudeste 0 919.1 -- 95
2020-11-30 00:00:00 0.9 0 Calma 7 Nordeste 0 918.9 -- 93
2020-11-29 23:00:00 1.2 4 Nordeste 8 Nordeste 0 918.7 -- 94
2020-11-29 22:00:00 2.9 2 Sudoeste 4 Sudoeste 0 918.1 -- 92
2020-11-29 21:00:00 3.4 3 Norte 9 Sudeste 0 917.6 -- 90
2020-11-29 20:00:00 5.2 5 Sur 8 Sudeste 0 917 -- 86
2020-11-29 19:00:00 7.1 0 Calma 5 Sudeste 0 916.4 -- 79
2020-11-29 18:00:00 10.5 3 Sudeste 7 Sudoeste 0 915.8 -- 66
2020-11-29 17:00:00 13.5 5 Sudoeste 12 Sudoeste 0 915.4 -- 54
2020-11-29 16:00:00 13.7 8 Sudoeste 17 Sudoeste 0 915 -- 55
2020-11-29 15:00:00 12.8 7 Sudeste 13 Sudeste 0 915 -- 63
2020-11-29 14:00:00 11.9 5 Sur 12 Sudeste 0 915.2 -- 70
2020-11-29 13:00:00 8.6 4 Sudoeste 8 Sudoeste 0 915.7 -- 85
2020-11-29 12:00:00 6 2 Sur 9 Oeste 0 916.1 -- 95
2020-11-29 11:00:00 4.1 2 Oeste 6 Sur 0 916.1 -- 98
2020-11-29 10:00:00 2.8 4 Sur 7 Sur 0 915.5 -- 99
2020-11-29 09:00:00 2.1 5 Sur 14 Sur 0 915 -- 100
2020-11-29 08:00:00 1.5 7 Sur 12 Sudeste 0 913.9 -- 98
2020-11-29 07:00:00 1.3 2 Oeste 7 Sudeste 0 913.4 -- 99
2020-11-29 06:00:00 0.9 4 Nordeste 7 Sudoeste 0 912.7 -- 98
2020-11-29 05:00:00 2.1 3 Sur 8 Sudeste 0 912.1 -- 97
2020-11-29 04:00:00 2.7 3 Sur 6 Sur 0 911.8 -- 95
2020-11-29 03:00:00 3.9 0 Calma 5 Nordeste 0 911.6 -- 96
2020-11-29 02:00:00 3.7 3 Oeste 10 Este 0 911.5 -- 97
2020-11-29 01:00:00 3.6 3 Oeste 7 Nordeste 0 911.2 -- 97
2020-11-29 00:00:00 3.4 3 Sudoeste 7 Sur 0 910.8 -- 95
2020-11-28 23:00:00 4.3 2 Norte 5 Sur 0 910.2 -- 94
2020-11-28 22:00:00 5.8 0 Calma 8 Sudeste 0 909.7 -- 93
2020-11-28 21:00:00 5.6 4 Sur 6 Sudeste 0 909.3 -- 93
2020-11-28 20:00:00 6.8 0 Calma 5 Norte 0 908.6 -- 89
2020-11-28 19:00:00 7.9 3 Noroeste 12 Norte 0 907.8 -- 87
2020-11-28 18:00:00 8.9 3 Noroeste 12 Norte 0 907.1 -- 83
2020-11-28 17:00:00 9.7 6 Noroeste 17 Noroeste 0 906.5 -- 81
2020-11-28 16:00:00 10.6 8 Noroeste 13 Noroeste 0 905.8 -- 77
2020-11-28 15:00:00 10.5 5 Norte 15 Noroeste 0 905.8 -- 76
2020-11-28 14:00:00 10.9 5 Noroeste 17 Noroeste 0 905.7 -- 72
2020-11-28 13:00:00 9.7 8 Nordeste 16 Nordeste 0 905.7 -- 77
2020-11-28 12:00:00 9 5 Nordeste 9 Nordeste 0 905.7 -- 80
2020-11-28 11:00:00 8.2 4 Noroeste 8 Norte 0 905.8 -- 90
2020-11-28 10:00:00 7.1 3 Norte 5 Nordeste 0 906.1 -- 94
2020-11-28 09:00:00 6.9 3 Nordeste 10 Nordeste 0 905.8 -- 94
2020-11-28 08:00:00 6.9 4 Norte 10 Este 0 905.3 -- 91
2020-11-28 07:00:00 7.3 4 Este 13 Nordeste 0 904.7 -- 86
2020-11-28 06:00:00 7.1 2 Norte 17 Este 0 904.3 -- 87
2020-11-28 05:00:00 7.2 8 Nordeste 15 Este 0 904.8 -- 87
2020-11-28 04:00:00 7.3 6 Nordeste 21 Nordeste 0 904.9 -- 87
2020-11-28 03:00:00 7.9 9 Nordeste 28 Este 0 905 -- 86
2020-11-28 02:00:00 7.4 5 Norte 14 Nordeste 0 905.3 -- 92
2020-11-28 01:00:00 6.8 3 Este 9 Norte 0 906 -- 91
2020-11-28 00:00:00 7 3 Norte 23 Este 0.2 906.5 -- 86
2020-11-27 23:00:00 7.8 8 Sudeste 21 Sudeste 0 907.5 -- 86
2020-11-27 22:00:00 8 6 Nordeste 27 Este 0 907.4 -- 83
2020-11-27 21:00:00 7.7 8 Este 37 Este 0.4 907.3 -- 85
2020-11-27 20:00:00 7.9 14 Este 35 Este 1.2 907.6 -- 82
2020-11-27 19:00:00 8.9 15 Este 23 Este 0.6 907.9 -- 86
2020-11-27 18:00:00 9.2 4 Este 24 Nordeste 0 907.4 -- 81
2020-11-27 17:00:00 9.1 12 Este 31 Este 0.2 907.2 -- 80
2020-11-27 16:00:00 10 12 Este 22 Este 0.2 907.7 -- 80
2020-11-27 15:00:00 10.7 13 Este 33 Este 0 908 -- 75
2020-11-27 14:00:00 10.8 22 Este 48 Este 0 908.7 -- 76
2020-11-27 13:00:00 11.1 20 Este 40 Este 0 909.7 -- 72
2020-11-27 12:00:00 11.2 22 Este 36 Este 0 910.1 -- 74
2020-11-27 11:00:00 10.3 15 Este 34 Este 0 910.8 -- 77
2020-11-27 10:00:00 10 17 Este 31 Este 0 910.8 -- 80
2020-11-27 09:00:00 9.5 15 Este 32 Este 0 910.8 -- 81
2020-11-27 08:00:00 9.3 19 Este 37 Este 0 910.5 -- 78
2020-11-27 07:00:00 9.5 24 Este 41 Este 0 910.8 -- 77
2020-11-27 06:00:00 9.7 21 Este 32 Este 0 910.8 -- 79
2020-11-27 05:00:00 9.6 8 Este 26 Este 0 911.1 -- 81
2020-11-27 04:00:00 9.8 20 Este 32 Sudeste 0 911.7 -- 84
2020-11-27 03:00:00 10 12 Este 36 Este 0 912 -- 79
2020-11-27 02:00:00 10.3 23 Este 39 Este 0 911.8 -- 77
2020-11-27 01:00:00 10.2 22 Este 39 Este 0 912.6 -- 78
2020-11-27 00:00:00 10 8 Este 32 Nordeste 0 912.7 -- 82
2020-11-26 23:00:00 9.6 10 Este 25 Este 0 912.9 -- 83
2020-11-26 22:00:00 9.6 11 Este 29 Este 0 912.9 -- 84
2020-11-26 21:00:00 9.6 15 Este 34 Este 0 912.7 -- 82
2020-11-26 20:00:00 9.6 19 Este 33 Este 0 912.8 -- 82
2020-11-26 19:00:00 9.3 23 Este 35 Este 0 912.6 -- 81
2020-11-26 18:00:00 9.7 21 Este 35 Este 0 912.2 -- 78
2020-11-26 17:00:00 11.1 19 Este 35 Sudeste 0 911.9 -- 70
2020-11-26 16:00:00 11.4 23 Este 34 Este 0 911.9 -- 74
2020-11-26 15:00:00 11.4 19 Este 36 Este 0 912 -- 74
2020-11-26 14:00:00 11.4 22 Este 33 Este 0 912 -- 75
2020-11-26 13:00:00 10.2 12 Este 21 Este 0 912.8 -- 82
2020-11-26 12:00:00 8.6 11 Este 18 Este 0.6 913.5 -- 89
2020-11-26 11:00:00 8.5 15 Este 22 Este 0 914 -- 84
2020-11-26 10:00:00 4.8 2 Sur 10 Oeste 0 913.5 -- 96
2020-11-26 09:00:00 2.3 3 Sudeste 9 Este 0 913.2 -- 98
2020-11-26 08:00:00 1.4 4 Este 8 Sudeste 0 913 -- 97
2020-11-26 07:00:00 1.3 4 Sur 13 Sudeste 0 912.6 -- 95
2020-11-26 06:00:00 1.1 4 Sur 12 Este 0 912.7 -- 92
2020-11-26 05:00:00 1.8 7 Sudeste 11 Sudeste 0 912.8 -- 94
2020-11-26 04:00:00 3.1 9 Sudeste 15 Sudeste 0 913 -- 90
2020-11-26 03:00:00 2.3 6 Sudeste 9 Sudeste 0 913.3 -- 93
2020-11-26 02:00:00 2.2 6 Sudeste 11 Sudeste 0 913.5 -- 90
2020-11-26 01:00:00 2.7 6 Sudeste 10 Sudeste 0 913.9 -- 88
2020-11-26 00:00:00 3.6 5 Sur 10 Sudeste 0 913.9 -- 87
2020-11-25 23:00:00 3.6 7 Sudeste 10 Sudeste 0 913.9 -- 85
2020-11-25 22:00:00 4.8 2 Sudoeste 16 Sudeste 0 913.7 -- 82
2020-11-25 21:00:00 7.6 14 Sudeste 19 Sudeste 0 913.4 -- 76
2020-11-25 20:00:00 8.9 14 Sudeste 21 Sudeste 0 913 -- 71
2020-11-25 19:00:00 9.3 14 Sudeste 19 Sudeste 0 912.9 -- 69
2020-11-25 18:00:00 10.1 9 Sur 19 Sur 0 912.8 -- 66
2020-11-25 17:00:00 11.2 7 Sur 25 Sudeste 0 912.5 -- 60
2020-11-25 16:00:00 12 13 Sur 24 Sur 0 912.5 -- 58
2020-11-25 15:00:00 12.1 11 Sudoeste 21 Sur 0 912.8 -- 55
2020-11-25 14:00:00 11.9 7 Sudoeste 16 Oeste 0 913.4 -- 54
2020-11-25 13:00:00 11.8 7 Sur -- -- -- 914 -- 54
2020-11-25 12:00:00 6.4 8 Sudeste 12 Sudeste 0 915.2 -- 71
2020-11-25 11:00:00 4.8 5 Sudoeste 14 Sudeste 0 915.7 -- 72
2020-11-25 10:00:00 0.7 10 Sudeste 14 Sudeste 0 915.9 -- 85
2020-11-25 09:00:00 -3.5 3 Nordeste 6 Sudoeste 0 916 -- 91
2020-11-25 08:00:00 -3.7 6 Sudeste 8 Sur 0 916.3 -- 91
2020-11-25 07:00:00 -3.8 6 Sudeste 8 Sudeste 0 916.2 -- 89
2020-11-25 06:00:00 -3.9 2 Sudeste 5 Nordeste 0 916 -- 89
2020-11-25 05:00:00 -3.6 2 Noroeste 4 Noroeste 0 916.1 -- 87
2020-11-25 04:00:00 -3.1 0 Calma 5 Sudeste 0 916.2 -- 87
2020-11-25 03:00:00 -2.4 6 Sur 9 Sudeste 0 916.3 -- 86
2020-11-25 02:00:00 -2.2 3 Sudeste 4 Sudeste 0 916.7 -- 84
2020-11-25 01:00:00 -1.4 4 Sur 7 Sur 0 917.3 -- 84
2020-11-25 00:00:00 -1 3 Sudoeste 5 Norte 0 917.5 -- 82
2020-11-24 23:00:00 -0.1 3 Oeste 5 Sur 0 917.7 -- 78
2020-11-24 22:00:00 0.4 2 Nordeste 7 Sur 0 917.7 -- 77
2020-11-24 21:00:00 1.9 2 Sur 6 Oeste 0 917.8 -- 72
2020-11-24 20:00:00 3.8 3 Sudeste 6 Oeste 0 917.8 -- 65
2020-11-24 19:00:00 6.3 3 Este 6 Sudeste 0 917.6 -- 56
2020-11-24 18:00:00 10.8 3 Sur 7 Sur 0 917.3 -- 40
2020-11-24 17:00:00 13.8 3 Noroeste 4 Noroeste 0 917.2 -- 31
2020-11-24 16:00:00 14.3 3 Noroeste 5 Norte 0 917.5 -- 29
2020-11-24 15:00:00 13.6 4 Nordeste 8 Este 0 918 -- 30
2020-11-24 14:00:00 12.8 4 Sudeste 10 Sudoeste 0 919 -- 43
2020-11-24 13:00:00 10.9 7 Sur 13 Sudoeste 0 919.9 -- 52
2020-11-24 12:00:00 7.7 5 Sur 11 Sudoeste 0 921.1 -- 65
2020-11-24 11:00:00 4.8 8 Sur 17 Sudeste 0 922 -- 73
2020-11-24 10:00:00 1.5 10 Sudeste 13 Sur 0 922.1 -- 86
2020-11-24 09:00:00 -2.7 0 Calma 10 Sudeste 0 922.1 -- 90
2020-11-24 08:00:00 -3.9 4 Sur 5 Sudeste 0 921.9 -- 90
2020-11-24 07:00:00 -3.7 0 Calma 3 Sur 0 922.1 -- 89
2020-11-24 06:00:00 -3.4 3 Sudoeste 5 Sudeste 0 922.1 -- 88
2020-11-24 05:00:00 -3.1 4 Sudeste 6 Sudeste 0 922.1 -- 89
2020-11-24 04:00:00 -2.7 2 Noroeste 4 Sur 0 922.6 -- 88
2020-11-24 03:00:00 -2.3 0 Calma 4 Sur 0 922.8 -- 88
2020-11-24 02:00:00 -1.8 2 Nordeste 6 Sudeste 0 923.1 -- 86
2020-11-24 01:00:00 -1.5 0 Calma 6 Sur 0 923.5 -- 84
2020-11-24 00:00:00 -0.8 6 Sudeste 7 Sudeste 0 923.9 -- 81
2020-11-23 23:00:00 0 0 Calma 5 Oeste 0 924.2 -- 80
2020-11-23 22:00:00 1.3 5 Sudeste 9 Sudeste 0 924.3 -- 74
2020-11-23 21:00:00 2.3 3 Oeste 4 Nordeste 0 924.2 -- 72
2020-11-23 20:00:00 3.8 0 Calma 5 Oeste 0 924 -- 67
2020-11-23 19:00:00 6.6 5 Sur 8 Sudeste 0 923.8 -- 57
2020-11-23 18:00:00 10.9 2 Oeste 5 Este 0 923.4 -- 43
2020-11-23 17:00:00 15.4 3 Oeste 8 Noroeste 0 923.1 -- 32
2020-11-23 16:00:00 15.3 2 Sudeste 7 Sur 0 923.1 -- 32
2020-11-23 15:00:00 15.1 3 Sur 8 Sudoeste 0 923.5 -- 33
2020-11-23 14:00:00 13.5 4 Sudoeste 11 Sudeste 0 924.1 -- 42
2020-11-23 13:00:00 10.8 5 Sudoeste 10 Sudoeste 0 924.9 -- 51
2020-11-23 12:00:00 7.9 5 Sur 12 Sur 0 925.9 -- 61
2020-11-23 11:00:00 4.9 7 Sur 11 Sudeste 0 926.3 -- 73
2020-11-23 10:00:00 -0.6 0 Calma 4 Nordeste 0 926.4 -- 86
2020-11-23 09:00:00 -3.6 2 Noroeste 4 Sur 0 926 -- 91
2020-11-23 08:00:00 -4.5 0 Calma 4 Sudoeste 0 925.7 -- 92
2020-11-23 07:00:00 -4 4 Sur 6 Sur 0 925.6 -- 91
2020-11-23 06:00:00 -4 0 Calma 6 Sur 0 925.7 -- 89
2020-11-23 05:00:00 -3.7 0 Calma 3 Nordeste 0 925.6 -- 88
2020-11-23 04:00:00 -3.1 2 Oeste 7 Sudeste 0 925.5 -- 89
2020-11-23 03:00:00 -2.8 3 Sur 5 Sur 0 925.7 -- 89
2020-11-23 02:00:00 -2.3 0 Calma 7 Sur 0 925.5 -- 86
2020-11-23 01:00:00 -2 3 Sudeste 5 Sur 0 925.8 -- 86
2020-11-23 00:00:00 -1.5 3 Nordeste 5 Sur 0 925.6 -- 87
2020-11-22 23:00:00 -0.7 0 Calma 6 Sur 0 925.6 -- 87
2020-11-22 22:00:00 0.2 2 Nordeste 8 Sur 0 925.6 -- 83
2020-11-22 21:00:00 1.6 0 Calma 5 Este 0 925.3 -- 78
2020-11-22 20:00:00 3.2 4 Este 6 Oeste 0 925 -- 73
2020-11-22 19:00:00 6.3 4 Sur 5 Sur 0 924.4 -- 61
2020-11-22 18:00:00 10.9 0 Calma 7 Norte 0 923.9 -- 46
2020-11-22 17:00:00 14.5 5 Noroeste 14 Noroeste 0 923.7 -- 36
2020-11-22 16:00:00 15.1 7 Noroeste 14 Noroeste 0 923.5 -- 37
2020-11-22 15:00:00 15.1 3 Nordeste 8 Norte 0 923.7 -- 37
2020-11-22 14:00:00 13.8 3 Este 10 Sudeste 0 924.2 -- 43
2020-11-22 13:00:00 11.2 7 Sur 10 Sur 0 924.9 -- 49
2020-11-22 12:00:00 7.5 4 Sudoeste 8 Sudoeste 0 925.9 -- 63
2020-11-22 11:00:00 4 6 Sur 14 Sur 0 926.4 -- 73
2020-11-22 10:00:00 0.7 8 Sur 15 Sudeste 0 926.6 -- 85
2020-11-22 09:00:00 -2.2 13 Sudeste 18 Sudeste 0 926.6 -- 92
2020-11-22 08:00:00 -3.1 10 Sudeste 15 Sudeste 0 926.3 -- 93
2020-11-22 07:00:00 -2.8 10 Sudeste 14 Sudeste 0 926.3 -- 93
2020-11-22 06:00:00 -1.7 6 Sur 14 Sudeste 0 926 -- 88
2020-11-22 05:00:00 -1.5 10 Sudeste 15 Sudeste 0 926.1 -- 94
2020-11-22 04:00:00 -1.6 2 Oeste 14 Sudeste 0 926 -- 84
2020-11-22 03:00:00 -0.2 10 Sudeste 12 Sudeste 0 925.8 -- 88
2020-11-22 02:00:00 0.1 7 Sudeste 13 Sudeste 0 925.8 -- 84
2020-11-22 01:00:00 -0.8 8 Sudeste 13 Sur 0 926.3 -- 78
2020-11-22 00:00:00 -0.1 6 Sur 11 Sur 0 926.3 -- 79
2020-11-21 23:00:00 -1 4 Sur 7 Sur 0 926.5 -- 78
2020-11-21 22:00:00 0 0 Calma 8 Sur 0 926.4 -- 72
2020-11-21 21:00:00 1.9 6 Sur 9 Sur 0 925.9 -- 64
2020-11-21 20:00:00 3.4 5 Sur 10 Sudeste 0 925.7 -- 58
2020-11-21 19:00:00 6.2 3 Sudoeste 8 Nordeste 0 925.5 -- 50
2020-11-21 18:00:00 10.6 3 Sur 9 Noroeste 0 925 -- 33
2020-11-21 17:00:00 14.6 3 Norte 13 Noroeste 0 924.7 -- 25
2020-11-21 16:00:00 15.5 5 Noroeste 9 Noroeste 0 924.6 -- 23
2020-11-21 15:00:00 15.2 3 Noroeste 10 Oeste 0 924.6 -- 24
2020-11-21 14:00:00 13.2 4 Oeste 8 Oeste 0 925 -- 25
2020-11-21 13:00:00 10.3 4 Oeste 8 Sudoeste 0 925.6 -- 28
2020-11-21 12:00:00 7.4 5 Sudoeste 8 Sudoeste 0 926.3 -- 39
2020-11-21 11:00:00 3.9 3 Sudoeste 11 Sur 0 926.5 -- 56
2020-11-21 10:00:00 1 7 Sudeste 15 Sudeste 0 926.4 -- 73
2020-11-21 09:00:00 -2.8 6 Sur 12 Sudeste 0 926.5 -- 87
2020-11-21 08:00:00 -3.8 3 Oeste 8 Sudeste 0 926.1 -- 89
2020-11-21 07:00:00 -3.5 4 Sur 6 Sur 0 925.7 -- 89
2020-11-21 06:00:00 -3.1 2 Norte 13 Sudeste 0 925.4 -- 87
2020-11-21 05:00:00 -2.6 7 Sudeste 13 Sudeste 0 925.5 -- 88
2020-11-21 04:00:00 -2.3 4 Sudeste 6 Sudeste 0 925.6 -- 85
2020-11-21 03:00:00 -1.6 3 Norte 16 Sur 0 925.6 -- 86
2020-11-21 02:00:00 -1.7 0 Calma 9 Sur 0 925.9 -- 83
2020-11-21 01:00:00 -1 3 Sudeste 7 Nordeste 0 926.6 -- 80
2020-11-21 00:00:00 -0.3 6 Sur 9 Sudeste 0 926.3 -- 79
2020-11-20 23:00:00 0.7 4 Sudeste 9 Sudeste 0 926.5 -- 74
2020-11-20 22:00:00 2 3 Sur 8 Sudeste 0 926.4 -- 70
2020-11-20 21:00:00 3.5 5 Sudeste 8 Sudoeste 0 926.2 -- 63
2020-11-20 20:00:00 5 2 Oeste 9 Oeste 0 926.2 -- 59
2020-11-20 19:00:00 6.7 4 Norte 16 Norte 0 925.9 -- 50
2020-11-20 18:00:00 8.5 8 Norte 26 Nordeste 0 925.6 -- 44
2020-11-20 17:00:00 10.5 12 Nordeste 26 Nordeste 0 925.6 -- 37
2020-11-20 16:00:00 11.2 17 Nordeste 33 Nordeste 0 926.2 -- 37
2020-11-20 15:00:00 12.4 11 Norte 28 Norte 0 926.1 -- 33
2020-11-20 14:00:00 12.2 8 Norte 31 Noroeste 0 926.7 -- 33
2020-11-20 13:00:00 11 15 Noroeste 26 Noroeste 0 927.1 -- 39
2020-11-20 12:00:00 9.7 8 Norte 21 Noroeste 0 928.6 -- 47
2020-11-20 11:00:00 7 7 Norte 15 Norte 0 928.9 -- 68
2020-11-20 10:00:00 2.7 3 Nordeste 7 Noroeste 0 929.1 -- 97
2020-11-20 09:00:00 -0.2 2 Norte 5 Nordeste 0 928.8 -- 98
2020-11-20 08:00:00 -1.3 3 Norte 8 Sur 0 928.5 -- 96
2020-11-20 07:00:00 -0.7 3 Este 5 Nordeste 0 928.3 -- 97
2020-11-20 06:00:00 0.3 0 Calma 9 Sudeste 0 928.4 -- 95
2020-11-20 05:00:00 0.9 3 Sur 6 Sur 0 928.5 -- 96
2020-11-20 04:00:00 2.2 9 Sudeste 12 Sudeste 0 928.9 -- 98
2020-11-20 03:00:00 2.5 2 Nordeste 7 Nordeste 0 929.6 -- 96
2020-11-20 02:00:00 3.6 5 Sudeste 7 Este 0 929.6 -- 96
2020-11-20 01:00:00 3.9 3 Sudeste 7 Sudeste 0 929.9 -- 96
2020-11-20 00:00:00 4.5 3 Sudoeste 7 Nordeste 0 930.1 -- 91
2020-11-19 23:00:00 6.3 3 Este 7 Noroeste 0 930.3 -- 88
2020-11-19 22:00:00 7.8 2 Norte 10 Norte 0 930.7 -- 86
2020-11-19 21:00:00 8.9 7 Norte 21 Norte 0 930.7 -- 85
2020-11-19 20:00:00 9.9 8 Norte 22 Norte 0 930.5 -- 84
2020-11-19 19:00:00 12 10 Norte 23 Norte 0 930.1 -- 77
2020-11-19 18:00:00 13.1 7 Norte 34 Nordeste 0 929.9 -- 74
2020-11-19 17:00:00 14.8 13 Norte 30 Nordeste 0 929.2 -- 69
2020-11-19 16:00:00 15.6 10 Norte 31 Norte 0 928.8 -- 66
2020-11-19 15:00:00 15.9 15 Norte 33 Nordeste 0 928.9 -- 65
2020-11-19 14:00:00 17.2 10 Norte 21 Norte 0 929 -- 63
2020-11-19 13:00:00 16.4 6 Noroeste 14 Noroeste 0 929.7 -- 63
2020-11-19 12:00:00 13.8 3 Nordeste 8 Nordeste 0 930.6 -- 67
2020-11-19 11:00:00 9.2 2 Sudoeste 4 Oeste 0 930.8 -- 78
2020-11-19 10:00:00 5.1 0 Calma 4 Sur 0 930.5 -- 90
2020-11-19 09:00:00 2.1 0 Calma 5 Sudeste 0 930.1 -- 96
2020-11-19 08:00:00 1 2 Sudeste 5 Sudoeste 0 929.3 -- 95
2020-11-19 07:00:00 1.3 3 Sudeste 5 Sudeste 0 928.7 -- 95
2020-11-19 06:00:00 1.4 3 Oeste 4 Oeste 0 928.1 -- 93
2020-11-19 05:00:00 1.8 0 Calma 6 Sur 0 928 -- 94
2020-11-19 04:00:00 2.3 0 Calma 4 Sur 0 927.7 -- 93
2020-11-19 03:00:00 3 4 Sudeste 6 Sudeste 0 927.6 -- 92
2020-11-19 02:00:00 3.4 0 Calma 5 Sur 0 927.7 -- 92
2020-11-19 01:00:00 4.1 3 Sudeste 5 Este 0 927.6 -- 91
2020-11-19 00:00:00 4.9 3 Sudoeste 4 Sudeste 0 927.5 -- 88
2020-11-18 23:00:00 5.6 0 Calma 4 Sudeste 0 927.2 -- 85
2020-11-18 22:00:00 6.4 0 Calma 4 Este 0 926.8 -- 87
2020-11-18 21:00:00 8.1 0 Calma 5 Sudeste 0 926.2 -- 79
2020-11-18 20:00:00 9.8 0 Calma 4 Oeste 0 925.9 -- 73
2020-11-18 19:00:00 12.3 2 Nordeste 5 Sudeste 0 925.6 -- 66
2020-11-18 18:00:00 16 0 Calma 9 Norte 0 925.1 -- 53
2020-11-18 17:00:00 18.9 7 Norte 14 Norte 0 924.8 -- 42
2020-11-18 16:00:00 20.2 7 Norte 15 Nordeste 0 924.6 -- 38
2020-11-18 15:00:00 20.7 3 Sur 9 Sudeste 0 924.5 -- 41
2020-11-18 14:00:00 19.2 3 Sudoeste 7 Sudoeste 0 925 -- 43
2020-11-18 13:00:00 16.8 3 Sur 8 Sur 0 925.5 -- 52
2020-11-18 12:00:00 13.2 4 Sudoeste 7 Sudoeste 0 926.3 -- 63
2020-11-18 11:00:00 9.9 2 Sudeste 12 Sudeste 0 926.7 -- 74
2020-11-18 10:00:00 7.2 9 Sudeste 15 Sur 0 926.8 -- 85
2020-11-18 09:00:00 2.9 5 Sur 8 Sur 0 926.7 -- 98
2020-11-18 08:00:00 0.8 2 Este 5 Nordeste 0 926.3 -- 96
2020-11-18 07:00:00 0.9 2 Sudoeste 4 Sudoeste 0 926 -- 95
2020-11-18 06:00:00 1.4 2 Noroeste 5 Sur 0 925.9 -- 95
2020-11-18 05:00:00 1.6 0 Calma 5 Sur 0 925.7 -- 95
2020-11-18 04:00:00 2 4 Sur 5 Sur 0 925.7 -- 95
2020-11-18 03:00:00 2.6 2 Sur 5 Oeste 0 925.7 -- 93
2020-11-18 02:00:00 3 0 Calma 6 Sur 0 925.8 -- 92
2020-11-18 01:00:00 3.7 2 Noroeste 4 Oeste 0 926.1 -- 91
2020-11-18 00:00:00 4.4 4 Sur 5 Sur 0 926.2 -- 89
2020-11-17 23:00:00 4.8 2 Norte 4 Noroeste 0 926.1 -- 90
2020-11-17 22:00:00 6 3 Sur 6 Sur 0 925.6 -- 83
2020-11-17 21:00:00 7.2 2 Nordeste 8 Sur 0 925.3 -- 80
2020-11-17 20:00:00 9.1 5 Sur 7 Sudeste 0 925 -- 74
2020-11-17 19:00:00 11.5 5 Sudeste 9 Sudeste 0 924.5 -- 69
2020-11-17 18:00:00 15.7 4 Noroeste 5 Noroeste 0 924 -- 54
2020-11-17 17:00:00 19.1 4 Oeste 8 Este 0 923.8 -- 40
2020-11-17 16:00:00 18.5 5 Este 8 Este 0 923.7 -- 42
2020-11-17 15:00:00 18.1 4 Sudeste 9 Este 0 924 -- 45
2020-11-17 14:00:00 16.6 4 Este 9 Sudeste 0 924.4 -- 55
2020-11-17 13:00:00 15.2 5 Sudeste 11 Sudeste 0 924.8 -- 64
2020-11-17 12:00:00 13 7 Sur 14 Sudeste 0 925.7 -- 74
2020-11-17 11:00:00 10.2 7 Sur 12 Sudeste 0 926.1 -- 84
2020-11-17 10:00:00 6.7 6 Sur 11 Sur 0 926.2 -- 94
2020-11-17 09:00:00 3.1 4 Este 5 Este 0 925.5 -- 98
2020-11-17 08:00:00 1.8 2 Sudoeste 4 Sur 0 925 -- 97
2020-11-17 07:00:00 2 0 Calma 5 Sur 0 924.9 -- 97
2020-11-17 06:00:00 2.5 2 Sur 5 Nordeste 0 924.8 -- 97
2020-11-17 05:00:00 2.7 0 Calma 6 Nordeste 0 924.4 -- 97
2020-11-17 04:00:00 3.8 3 Noroeste 11 Sudeste 0 924.7 -- 94
2020-11-17 03:00:00 3.8 6 Sur 9 Sur 0 924.5 -- 97
2020-11-17 02:00:00 3.9 6 Sur 10 Sudeste 0 924.4 -- 96
2020-11-17 01:00:00 4 2 Norte 5 Sur 0 924.7 -- 94
2020-11-17 00:00:00 5.3 4 Sudeste 8 Sur 0 924.8 -- 94
2020-11-16 23:00:00 5.4 3 Sudeste 5 Sur 0 925.1 -- 94
2020-11-16 22:00:00 6.1 4 Nordeste 6 Nordeste 0 924.8 -- 94
2020-11-16 21:00:00 7.2 0 Calma 10 Sudeste 0 924.3 -- 91
2020-11-16 20:00:00 8.7 4 Sudeste 7 Sur 0 923.8 -- 88
2020-11-16 19:00:00 10.5 2 Sudoeste 10 Norte 0 923.3 -- 83
2020-11-16 18:00:00 12.1 6 Nordeste 15 Norte 0 922.9 -- 79
2020-11-16 17:00:00 14.5 8 Norte 19 Noroeste 0 922.5 -- 65
2020-11-16 16:00:00 14.8 6 Norte 20 Norte 0 922 -- 66
2020-11-16 15:00:00 14.4 8 Norte 21 Norte 0 921.8 -- 71
2020-11-16 14:00:00 14.2 10 Norte 21 Norte 0 922 -- 73
2020-11-16 13:00:00 13.9 8 Norte 23 Noroeste 0 922.3 -- 76
2020-11-16 12:00:00 13.3 7 Noroeste 15 Noroeste 0 922.8 -- 81
2020-11-16 11:00:00 11.1 10 Nordeste 16 Norte 0 922.8 -- 88
2020-11-16 10:00:00 10.9 5 Norte 12 Norte 0 922.6 -- 90
2020-11-16 09:00:00 10.5 2 Norte 6 Norte 0.2 921.8 -- 95
2020-11-16 08:00:00 10.1 2 Noroeste 22 Nordeste 0 921 -- 94
2020-11-16 07:00:00 10.3 14 Nordeste 25 Nordeste 0.6 920.4 -- 94
2020-11-16 06:00:00 12.6 5 Norte 14 Norte 0.6 920.2 -- 94
2020-11-16 05:00:00 13.4 3 Noroeste 6 Noroeste 0 919.5 -- 85
2020-11-16 04:00:00 14 2 Oeste 16 Oeste 0 919.8 -- 82
2020-11-16 03:00:00 14 6 Oeste 13 Oeste 0 919.9 -- 82
2020-11-16 02:00:00 13.9 6 Sur 14 Sur 0 919.6 -- 81
2020-11-16 01:00:00 14 8 Sur 20 Sur 0 920 -- 81
2020-11-16 00:00:00 14.1 9 Sur 17 Sudoeste 0 920 -- 80
2020-11-15 23:00:00 14.2 6 Sur 17 Sur 0 920.2 -- 79
2020-11-15 22:00:00 13.5 8 Sudeste 13 Sudeste 0 919.9 -- 82
2020-11-15 21:00:00 13.9 4 Este 11 Oeste 0 919.6 -- 80
2020-11-15 20:00:00 14.1 3 Este 9 Sudoeste 0 919.3 -- 80
2020-11-15 19:00:00 14.7 4 Norte 9 Sudoeste 0 919.3 -- 77
2020-11-15 18:00:00 15.3 6 Sudoeste 24 Oeste 0 919.1 -- 75
2020-11-15 17:00:00 15.8 14 Sudoeste 34 Sudoeste 0 919 -- 73
2020-11-15 16:00:00 16.5 14 Oeste 40 Oeste 0 918.8 -- 68
2020-11-15 15:00:00 16.7 18 Oeste 38 Oeste 0 918.5 -- 67
2020-11-15 14:00:00 17.2 16 Oeste 34 Oeste 0 918.5 -- 65
2020-11-15 13:00:00 15.8 19 Oeste 39 Oeste 0 918.9 -- 69
2020-11-15 12:00:00 14.8 15 Oeste 24 Sudoeste 0 919.6 -- 74
2020-11-15 11:00:00 13.4 13 Sudoeste 22 Sudoeste 0 919.6 -- 77
2020-11-15 10:00:00 11.1 13 Sudoeste 20 Sudoeste 0 919.6 -- 86
2020-11-15 09:00:00 8.2 9 Sudeste 13 Sudeste 0 919.5 -- 95
2020-11-15 08:00:00 7.9 9 Sudeste 17 Sudeste 0 919 -- 95
2020-11-15 07:00:00 7.9 9 Sur 19 Sudoeste 0 918.9 -- 98
2020-11-15 06:00:00 7.1 9 Sudeste 14 Sudeste 0 919.1 -- 97
2020-11-15 05:00:00 7.4 10 Sudeste 13 Sudeste 0 918.6 -- 99
2020-11-15 04:00:00 7 7 Sudeste 11 Sudeste 0 918.8 -- 98
2020-11-15 03:00:00 7.1 6 Sudeste 9 Sur 0 919.2 -- 96
2020-11-15 02:00:00 7.8 4 Sur 11 Sur 0 919.3 -- 94
2020-11-15 01:00:00 9 8 Sur 11 Sur 0 919.5 -- 94
2020-11-15 00:00:00 10.1 3 Sur 12 Sur 0 919.6 -- 94
2020-11-14 23:00:00 11 6 Sur 10 Sudeste 0 919.8 -- 94
2020-11-14 22:00:00 11.1 5 Sur 9 Sur 0 919.7 -- 94
2020-11-14 21:00:00 11.3 4 Sur 8 Sudeste 0 919.4 -- 93
2020-11-14 20:00:00 11.5 7 Sudeste 9 Sudeste 0 919.2 -- 93
2020-11-14 19:00:00 12.1 0 Calma 6 Sudeste 0 919 -- 92
2020-11-14 18:00:00 12.6 3 Sur 11 Sudoeste 0 918.6 -- 89
2020-11-14 17:00:00 13.2 7 Sur 14 Sudoeste 0 918.5 -- 87
2020-11-14 16:00:00 13.5 8 Sudoeste 14 Sudoeste 0 918.5 -- 84
2020-11-14 15:00:00 13.6 0 Calma 8 Nordeste 0 918.5 -- 81
2020-11-14 14:00:00 12.8 3 Este 7 Sudoeste 0 918.9 -- 85
2020-11-14 13:00:00 11.8 4 Sur 9 Sudoeste 0 919.4 -- 87
2020-11-14 12:00:00 10.6 5 Sur 13 Sudeste 0 920 -- 89
2020-11-14 11:00:00 9.6 8 Sur 14 Sur 0 920.1 -- 93
2020-11-14 10:00:00 7.3 6 Sudeste 12 Sur 0 920.1 -- 99
2020-11-14 09:00:00 5.6 2 Sur 4 Sudeste 0 920 -- 99
2020-11-14 08:00:00 5.3 3 Sudeste 10 Sudeste 0 919.4 -- 98
2020-11-14 07:00:00 4.8 4 Sudeste 8 Sudeste 0 919.4 -- 97
2020-11-14 06:00:00 5.4 5 Sudeste 9 Sudeste 0 919.3 -- 96
2020-11-14 05:00:00 5.7 7 Sudeste 10 Sudeste 0 919.2 -- 92
2020-11-14 04:00:00 6.6 8 Sudeste 11 Sudeste 0 919.3 -- 94
2020-11-14 03:00:00 6.7 7 Sudeste 9 Sudeste 0 919.8 -- 93
2020-11-14 02:00:00 7.4 7 Sudeste 9 Sudeste 0 919.9 -- 88
2020-11-14 01:00:00 7.7 5 Sudeste 9 Sudeste 0 920.3 -- 89
2020-11-14 00:00:00 8 6 Sudeste 10 Sudeste 0 920.4 -- 87
2020-11-13 23:00:00 8.4 4 Sudeste 9 Sur 0 920.3 -- 84
2020-11-13 22:00:00 8.9 6 Sur 11 Sur 0 920.1 -- 84
2020-11-13 21:00:00 9.9 2 Nordeste 10 Noroeste 0 919.7 -- 81
2020-11-13 20:00:00 11.4 2 Oeste 12 Norte 0 919.4 -- 72
2020-11-13 19:00:00 12 5 Norte 8 Noroeste 0 919.1 -- 68
2020-11-13 18:00:00 13.9 4 Este 6 Este 0 918.4 -- 63
2020-11-13 17:00:00 15.8 3 Este 10 Sudoeste 0 918.3 -- 52
2020-11-13 16:00:00 16.4 4 Sudeste 12 Sudoeste 0 918.3 -- 48
2020-11-13 15:00:00 15.6 6 Este 12 Sudeste 0 918.4 -- 51
2020-11-13 14:00:00 14.8 3 Este 10 Sur 0 919 -- 54
2020-11-13 13:00:00 14.4 4 Sur 12 Sur 0 919.6 -- 58
2020-11-13 12:00:00 13.3 7 Sur 13 Sudoeste 0 920.2 -- 64
2020-11-13 11:00:00 11.7 5 Sudoeste 9 Sudoeste 0 920.5 -- 69
2020-11-13 10:00:00 8.6 3 Sudoeste 6 Sudoeste 0 920.6 -- 83
2020-11-13 09:00:00 6.3 3 Sur 10 Sudeste 0 920.4 -- 94
2020-11-13 08:00:00 5.1 9 Sudeste 11 Sudeste 0 919.7 -- 96
2020-11-13 07:00:00 4.4 3 Este 5 Este 0 919.7 -- 95
2020-11-13 06:00:00 4.9 2 Sudoeste 8 Sudeste 0 919.5 -- 94
2020-11-13 05:00:00 5 5 Sudeste 8 Sudeste 0 919.4 -- 93
2020-11-13 04:00:00 5.2 2 Norte 6 Sur 0 919.3 -- 94
2020-11-13 03:00:00 6.1 4 Sur 12 Sudeste 0 919.7 -- 92
2020-11-13 02:00:00 5.4 7 Sudeste 8 Sudeste 0 920 -- 93
2020-11-13 01:00:00 5.9 4 Sur 8 Sudeste 0 920.3 -- 89
2020-11-13 00:00:00 5.3 5 Sudeste 8 Sudeste 0 920.4 -- 92
2020-11-12 23:00:00 5.2 2 Sudoeste 8 Sudeste 0 920.5 -- 89
2020-11-12 22:00:00 6.8 6 Sudeste 8 Sudeste 0 920.4 -- 85
2020-11-12 21:00:00 8.4 4 Sudoeste 10 Sur 0 919.9 -- 81
2020-11-12 20:00:00 10.9 5 Sudeste 11 Sudeste 0 919.8 -- 72
2020-11-12 19:00:00 11.2 3 Oeste 16 Este 0 919.7 -- 72
2020-11-12 18:00:00 12.2 7 Este 9 Este 0 919.4 -- 69
2020-11-12 17:00:00 14.5 3 Sudeste 5 Sur 0 919.5 -- 58
2020-11-12 16:00:00 15.1 3 Sudoeste 6 Sudoeste 0 919.6 -- 52
2020-11-12 15:00:00 14.6 3 Sudoeste 6 Sudoeste 0 919.8 -- 55
2020-11-12 14:00:00 14 4 Sudeste 8 Sur 0 920.5 -- 59
2020-11-12 13:00:00 12.5 4 Sur 13 Sur 0 921.2 -- 64
2020-11-12 12:00:00 10 8 Sur 14 Sur 0 922.2 -- 73
2020-11-12 11:00:00 7.6 6 Sudoeste 10 Sur 0 922.5 -- 83
2020-11-12 10:00:00 5.7 2 Noroeste 3 Norte 0 922.4 -- 90
2020-11-12 09:00:00 4.9 4 Sudoeste 13 Sudeste 0 922.4 -- 91
2020-11-12 08:00:00 4.1 10 Sudeste 13 Sudeste 0 922.3 -- 93
2020-11-12 07:00:00 3.6 3 Oeste 9 Sudeste 0 921.7 -- 92
2020-11-12 06:00:00 3.9 5 Sur 10 Sudeste 0 921.9 -- 93
2020-11-12 05:00:00 3.5 2 Este 6 Sudeste 0 921.9 -- 93
2020-11-12 04:00:00 3.4 0 Calma 8 Nordeste 0 922.1 -- 94
2020-11-12 03:00:00 4.1 3 Sudoeste 8 Sudeste 0 922.5 -- 91
2020-11-12 02:00:00 4.2 0 Calma 10 Nordeste 0 922.8 -- 91
2020-11-12 01:00:00 4.7 3 Oeste 9 Sur 0 922.8 -- 86
2020-11-12 00:00:00 5 6 Sur 9 Sur 0 922.7 -- 87
2020-11-11 23:00:00 5.8 3 Sur 8 Sudeste 0 922.5 -- 81
2020-11-11 22:00:00 7.3 3 Sudoeste 9 Sudeste 0 922.3 -- 76
2020-11-11 21:00:00 8.7 4 Sur 7 Noroeste 0 922.2 -- 70
2020-11-11 20:00:00 10.7 3 Sudeste 13 Noroeste 0 921.8 -- 60
2020-11-11 19:00:00 11.3 4 Este 9 Nordeste 0 921.6 -- 61
2020-11-11 18:00:00 14 4 Oeste 10 Oeste 0 921 -- 55
2020-11-11 17:00:00 17.5 6 Oeste 10 Sudoeste 0 920.8 -- 43
2020-11-11 16:00:00 17.7 6 Sudoeste 14 Sudeste 0 920.6 -- 43
2020-11-11 15:00:00 17.1 8 Sudoeste 15 Sudoeste 0 920.7 -- 45
2020-11-11 14:00:00 15.2 5 Sur 12 Sur 0 921.5 -- 55
2020-11-11 13:00:00 10.7 5 Sudeste 11 Sudeste 0 922.3 -- 87
2020-11-11 12:00:00 7.1 6 Sur 13 Sudeste 0 923.3 -- 97
2020-11-11 11:00:00 5.2 4 Sur 15 Sudeste 0 924.1 -- 100
2020-11-11 10:00:00 3.8 9 Sur 15 Sur 0 924.4 -- 99
2020-11-11 09:00:00 2.3 8 Sudeste 15 Sudeste 0 924.5 -- 99
2020-11-11 08:00:00 1.7 12 Sudeste 15 Sudeste 0 924.5 -- 97
2020-11-11 07:00:00 2.1 8 Sudeste 12 Sudeste 0 924.3 -- 96
2020-11-11 06:00:00 2.4 11 Sudeste 14 Sudeste 0 924.2 -- 98
2020-11-11 05:00:00 1.2 7 Sudeste 10 Sur 0 924.6 -- 97
2020-11-11 04:00:00 0.8 3 Nordeste 4 Oeste 0 924.9 -- 96
2020-11-11 03:00:00 1.5 0 Calma 5 Sudoeste 0 925.4 -- 93
2020-11-11 02:00:00 2.2 2 Sur 5 Sur 0 925.5 -- 94
2020-11-11 01:00:00 2.7 2 Sudoeste 4 Sudoeste 0 925.8 -- 92
2020-11-11 00:00:00 3.4 0 Calma 6 Sudeste 0 925.8 -- 91
2020-11-10 23:00:00 4 2 Sudeste 6 Sudeste 0 925.6 -- 93
2020-11-10 22:00:00 5.1 0 Calma 9 Sudeste 0 925.3 -- 91
2020-11-10 21:00:00 7.2 5 Este 9 Este 0 925.2 -- 86
2020-11-10 20:00:00 7.8 0 Calma 5 Oeste 0 924.9 -- 81
2020-11-10 19:00:00 9.8 4 Norte 9 Norte 0 924.7 -- 74
2020-11-10 18:00:00 12.5 2 Noroeste 8 Nordeste 0 924.4 -- 61
2020-11-10 17:00:00 14.9 4 Noroeste 17 Noroeste 0 924.1 -- 52
2020-11-10 16:00:00 14.8 5 Noroeste 12 Oeste 0 924 -- 52
2020-11-10 15:00:00 15.3 6 Sudoeste 12 Oeste 0 924.1 -- 57
2020-11-10 14:00:00 14.4 4 Sur 10 Sudeste 0 924.5 -- 62
2020-11-10 13:00:00 13 4 Sur 13 Sur 0 924.9 -- 70
2020-11-10 12:00:00 10.8 4 Sudeste 10 Sur 0 925.4 -- 81
2020-11-10 11:00:00 6.8 3 Este 6 Oeste 0 925.8 -- 98
2020-11-10 10:00:00 4.7 3 Sudoeste 9 Sur 0 925.7 -- 98
2020-11-10 09:00:00 3.1 3 Sur 10 Sur 0 925.4 -- 99
2020-11-10 08:00:00 2.8 6 Sudeste 12 Sur 0 924.6 -- 99
2020-11-10 07:00:00 2.5 6 Sudeste 10 Sudeste 0 924.2 -- 98
2020-11-10 06:00:00 2.3 3 Sudoeste 8 Sur 0 923.9 -- 98
2020-11-10 05:00:00 2.3 2 Este 4 Este 0 923.4 -- 97
2020-11-10 04:00:00 2.8 0 Calma 4 Noroeste 0 923.4 -- 97
2020-11-10 03:00:00 3.6 2 Sudoeste 4 Sur 0 923.4 -- 94
2020-11-10 02:00:00 4.6 2 Nordeste 4 Sur 0 923.2 -- 93
2020-11-10 01:00:00 6 3 Sur 6 Sur 0 923.2 -- 92
2020-11-10 00:00:00 7 4 Sur 8 Sur 0 923.3 -- 92
2020-11-09 23:00:00 7 5 Sur 8 Sur 0 923.2 -- 91
2020-11-09 22:00:00 8.2 2 Sur 9 Sudeste 0 922.9 -- 86
2020-11-09 21:00:00 8.6 5 Este 8 Este 0 922.2 -- 86
2020-11-09 20:00:00 9.9 3 Sur 6 Sudeste 0 922.1 -- 81
2020-11-09 19:00:00 11.7 0 Calma 6 Sudoeste 0 921.7 -- 77
2020-11-09 18:00:00 13.2 2 Nordeste 17 Noroeste 0 921 -- 66
2020-11-09 17:00:00 14.7 6 Noroeste 15 Oeste 0 920.6 -- 62
2020-11-09 16:00:00 15.4 9 Oeste 22 Noroeste 0 920.4 -- 62
2020-11-09 15:00:00 14.8 9 Oeste 19 Noroeste 0 920.3 -- 62
2020-11-09 14:00:00 14.4 4 Norte 12 Noroeste 0 920.4 -- 66
2020-11-09 13:00:00 14.5 5 Sur 10 Sudoeste 0 920.8 -- 68
2020-11-09 12:00:00 12.7 5 Sudoeste 15 Sudoeste 0 921.4 -- 77
2020-11-09 11:00:00 10.4 8 Sur 15 Sudeste 0 921.4 -- 82
2020-11-09 10:00:00 8.3 8 Sur 18 Sudeste 0 921.4 -- 85
2020-11-09 09:00:00 5.6 10 Sudeste 14 Sudeste 0 921.3 -- 92
2020-11-09 08:00:00 4.2 8 Sudeste 12 Sudeste 0 920.7 -- 94
2020-11-09 07:00:00 4.2 6 Sudeste 12 Sudeste 0 920.2 -- 93
2020-11-09 06:00:00 4.1 8 Sudeste 12 Sudeste 0 920 -- 94
2020-11-09 05:00:00 4.2 9 Sudeste 12 Sudeste 0 920 -- 93
2020-11-09 04:00:00 4 8 Sudeste 10 Sudeste 0 919.8 -- 94
2020-11-09 03:00:00 4.7 5 Sur 10 Sudeste 0 920.3 -- 90
2020-11-09 02:00:00 4.9 7 Sudeste 12 Sudeste 0 920.6 -- 91
2020-11-09 01:00:00 4.7 9 Sudeste 14 Sudeste 0 920.8 -- 93
2020-11-09 00:00:00 4.5 6 Sudeste 9 Sudeste 0 920.7 -- 91
2020-11-08 23:00:00 5.3 4 Sur 8 Oeste 0 920.7 -- 90
2020-11-08 22:00:00 6.2 4 Oeste 8 Sur 0 920.7 -- 86
2020-11-08 21:00:00 7.9 2 Sudoeste 8 Sudeste 0 920.8 -- 81
2020-11-08 20:00:00 9.6 3 Sur 11 Nordeste 0 920.6 -- 73
2020-11-08 19:00:00 12 5 Sudeste 11 Norte 0 920.4 -- 64
2020-11-08 18:00:00 14.3 3 Norte 15 Noroeste 0 919.6 -- 53
2020-11-08 17:00:00 17.1 0 Calma 10 Noroeste 0 919.3 -- 45
2020-11-08 16:00:00 17.7 3 Oeste 12 Oeste 0 919.3 -- 45
2020-11-08 15:00:00 17.5 5 Oeste 12 Sudoeste 0 919.6 -- 45
2020-11-08 14:00:00 16.4 5 Sudoeste 13 Sudeste 0 920.1 -- 49
2020-11-08 13:00:00 15.5 5 Sudoeste 12 Sudoeste 0 920.8 -- 55
2020-11-08 12:00:00 12.4 4 Sudoeste 9 Sur 0 921.7 -- 73
2020-11-08 11:00:00 9.4 4 Sudeste 9 Sudoeste 0 922.2 -- 85
2020-11-08 10:00:00 5 6 Sudeste 9 Sudeste 0 922.6 -- 99
2020-11-08 09:00:00 1.6 2 Sur 6 Sudeste 0 922.3 -- 98
2020-11-08 08:00:00 0.8 3 Sur 5 Sudeste 0 922.1 -- 97
2020-11-08 07:00:00 1.5 3 Sur 7 Oeste 0 921.9 -- 98
2020-11-08 06:00:00 2 3 Noroeste 6 Noroeste 0 922 -- 96
2020-11-08 05:00:00 3.1 3 Sur 8 Este 0 922 -- 97
2020-11-08 04:00:00 3.4 3 Este 4 Este 0 921.9 -- 97
2020-11-08 03:00:00 4.2 2 Noroeste 7 Sudeste 0 922.1 -- 93
2020-11-08 02:00:00 4.9 2 Oeste 4 Este 0 922.3 -- 93
2020-11-08 01:00:00 5.7 0 Calma 5 Oeste 0 922.5 -- 92
2020-11-08 00:00:00 6.9 3 Sur 9 Sudeste 0 922.2 -- 91
2020-11-07 23:00:00 7.6 4 Sur 14 Sur 0 922.1 -- 86
2020-11-07 22:00:00 8 9 Sur 12 Sur 0 921.5 -- 88
2020-11-07 21:00:00 8.6 4 Sur 10 Sudeste 0 921 -- 86
2020-11-07 20:00:00 9.8 7 Sudeste 12 Sudoeste 0 920.5 -- 82
2020-11-07 19:00:00 11.5 8 Sudoeste 24 Oeste 0 919.7 -- 74
2020-11-07 18:00:00 12.3 14 Oeste 28 Sudoeste 0 919 -- 69
2020-11-07 17:00:00 13 9 Oeste 22 Oeste 0 918.6 -- 69
2020-11-07 16:00:00 13.6 17 Oeste 34 Oeste 0 918.2 -- 64
2020-11-07 15:00:00 14.7 13 Sudoeste 30 Sudoeste 0 917.4 -- 61
2020-11-07 14:00:00 14.2 17 Sudoeste 34 Sudoeste 0 917.1 -- 62
2020-11-07 13:00:00 14.3 19 Sudoeste 36 Sudoeste 0 917.1 -- 62
2020-11-07 12:00:00 13.7 17 Sudoeste 29 Sudoeste 0 917 -- 70
2020-11-07 11:00:00 13 12 Sudoeste 24 Sudoeste 0 916.4 -- 75
2020-11-07 10:00:00 11.5 7 Sur 17 Sudoeste 0 915.9 -- 89
2020-11-07 09:00:00 10.4 6 Sudoeste 15 Sudeste 0.6 915.3 -- 92
2020-11-07 08:00:00 10.3 10 Sudeste 21 Sudeste 1.8 915.5 -- 93
2020-11-07 07:00:00 10.4 10 Sur 21 Sudeste 4.8 916.1 -- 93
2020-11-07 06:00:00 11.2 8 Sur 48 Este 7 915.2 -- 88
2020-11-07 05:00:00 14.6 33 Este 48 Sudeste 0 912.9 -- 77
2020-11-07 04:00:00 13.4 6 Sudoeste 29 Sur 0 913.7 -- 76
2020-11-07 03:00:00 13.4 3 Sudoeste 17 Sudeste 0 915 -- 74
2020-11-07 02:00:00 13.4 8 Este 16 Sudeste 0 915.5 -- 74
2020-11-07 01:00:00 13.6 5 Sudoeste 22 Sudoeste 0 916.3 -- 75
2020-11-07 00:00:00 14.1 13 Sudeste 21 Sudeste 0 916.5 -- 72
2020-11-06 23:00:00 13.8 6 Sur 23 Sur 0 917.5 -- 73
2020-11-06 22:00:00 14.7 12 Sur 28 Sudoeste 0 917.6 -- 69
2020-11-06 21:00:00 14.3 15 Sudeste 22 Sudeste 0 917.6 -- 72
2020-11-06 20:00:00 14.4 15 Sudeste 27 Sudeste 0 918 -- 71
2020-11-06 19:00:00 14.7 15 Sudeste 28 Sudeste 0 917.7 -- 69
2020-11-06 18:00:00 15.6 19 Sudeste 30 Sudeste 0 917.4 -- 66
2020-11-06 17:00:00 16.9 15 Sudeste 37 Sudeste 0 917.3 -- 62
2020-11-06 16:00:00 17.8 19 Sudeste 45 Sudeste 0 917.8 -- 59
2020-11-06 15:00:00 18.1 22 Sudeste 40 Sudeste 0 918.2 -- 58
2020-11-06 14:00:00 17.9 15 Sudeste 34 Sudeste 0 919 -- 64
2020-11-06 13:00:00 18 23 Sudeste 37 Sudeste 0 919.3 -- 67
2020-11-06 12:00:00 17.7 15 Este 27 Sudeste 0.2 920 -- 70
2020-11-06 11:00:00 15.4 9 Sudeste 15 Este 0 920.6 -0.1 81
2020-11-06 10:00:00 12.4 2 Oeste 5 Oeste 0 921.1 -- 89
2020-11-06 09:00:00 10.7 2 Sudeste 10 Este 0 921 -- 93
2020-11-06 08:00:00 9.4 5 Sudeste 19 Este 0 920.7 -- 91
2020-11-06 07:00:00 9 6 Este 15 Este 0 920.4 -- 93
2020-11-06 06:00:00 7.7 7 Sudeste 11 Sudeste 0 920.4 -- 94
2020-11-06 05:00:00 8.9 8 Sudeste 21 Este 0 920.2 -- 92
2020-11-06 04:00:00 7.8 5 Oeste 10 Sudeste 0 920.4 -- 95
2020-11-06 03:00:00 8.6 5 Sudeste 7 Sudoeste 0 920.9 -- 93
2020-11-06 02:00:00 10.2 8 Sudeste 26 Este 0 920.8 -- 91
2020-11-06 01:00:00 10 15 Este 24 Este 0 921 -- 91
2020-11-06 00:00:00 9.8 12 Sudeste 19 Sudeste 0 920.9 -- 89
2020-11-05 23:00:00 9.8 10 Sudeste 22 Sudeste 0 920.8 -- 91
2020-11-05 22:00:00 9.9 5 Sudoeste 23 Este 0 920.9 -- 92
2020-11-05 21:00:00 9.9 19 Este 27 Este 2.6 921 -- 93
2020-11-05 20:00:00 10.3 14 Este 33 Este 0 921.2 -- 91
2020-11-05 19:00:00 11.1 14 Este 30 Este 0 920.7 -- 86
2020-11-05 18:00:00 10.8 21 Este 39 Este 0 920.5 -- 87
2020-11-05 17:00:00 11 23 Este 37 Este 0 920.6 -- 86
2020-11-05 16:00:00 11.5 25 Este 38 Este 0 920.8 -- 84
2020-11-05 15:00:00 12 22 Este 37 Este 0 921 -- 81
2020-11-05 14:00:00 12 15 Este 33 Este 0 921.3 -- 82
2020-11-05 13:00:00 11 21 Este 34 Este 0 921.8 -- 84
2020-11-05 12:00:00 11.6 27 Este 36 Este 0 922.3 -- 79
2020-11-05 11:00:00 10.9 23 Este 32 Este 0 922.7 -- 81
2020-11-05 10:00:00 10.5 14 Sudeste 22 Sudeste 0 922.7 -- 80
2020-11-05 09:00:00 8.6 10 Sudeste 35 Este 0 922.5 -- 84
2020-11-05 08:00:00 7.5 10 Sudeste 25 Este 0 921.8 -- 89
2020-11-05 07:00:00 7.3 5 Nordeste 10 Nordeste 0 921.6 -- 92
2020-11-05 06:00:00 6 3 Norte 12 Nordeste 0 921.8 -- 95
2020-11-05 05:00:00 5.8 5 Norte 13 Nordeste 0 921.6 -- 94
2020-11-05 04:00:00 6.7 9 Este 28 Este 0 922 -- 91
2020-11-05 03:00:00 6.9 11 Este 24 Nordeste 0 922.1 -- 92
2020-11-05 02:00:00 6.8 6 Este 20 Este 0 922 -- 91
2020-11-05 01:00:00 6.9 8 Este 18 Este 0 921.7 -- 91
2020-11-05 00:00:00 6.6 5 Sur 25 Este 0 921.6 -- 90
2020-11-04 23:00:00 6 6 Norte 12 Oeste 0 921.7 -- 94
2020-11-04 22:00:00 5.2 4 Oeste 12 Noroeste 0 921.2 -- 95
2020-11-04 21:00:00 5.1 3 Noroeste 18 Noroeste 0 920.9 -- 94
2020-11-04 20:00:00 4.9 6 Noroeste 12 Noroeste 0 920.2 -- 94
2020-11-04 19:00:00 4.9 3 Noroeste 8 Noroeste 0.2 919.9 -- 94
2020-11-04 18:00:00 5.2 5 Noroeste 9 Noroeste 0.4 919.4 -- 94
2020-11-04 17:00:00 5.5 3 Noroeste 10 Noroeste 0.6 919.4 -- 92
2020-11-04 16:00:00 5.8 3 Noroeste 13 Norte 0.4 919.3 -- 93
2020-11-04 15:00:00 5.5 5 Norte 13 Norte 1.4 919.4 -- 92
2020-11-04 14:00:00 5.5 4 Noroeste 13 Norte 0.8 919.7 -- 89
2020-11-04 13:00:00 6.1 5 Norte 12 Noroeste 0 920.1 -- 83
2020-11-04 12:00:00 6 4 Noroeste 14 Nordeste 0 920.6 -- 79
2020-11-04 11:00:00 6 8 Norte 14 Nordeste 0.2 920.7 0 78
2020-11-04 10:00:00 5.5 6 Este 10 Nordeste 0 920.9 -- 83
2020-11-04 09:00:00 5.2 4 Noroeste 17 Nordeste 0 920.8 -- 82
2020-11-04 08:00:00 4.9 9 Norte 22 Norte 0 920.7 -- 80
2020-11-04 07:00:00 5 9 Nordeste 17 Nordeste 0 920.4 -- 80
2020-11-04 06:00:00 5 5 Norte 19 Nordeste 0 920.7 -- 81
2020-11-04 05:00:00 5.1 11 Nordeste 20 Nordeste 0 921.3 -- 81
2020-11-04 04:00:00 5.4 10 Nordeste 21 Nordeste 0 921.7 -- 82
2020-11-04 03:00:00 5.4 10 Nordeste 19 Nordeste 0 922.6 -- 85
2020-11-04 02:00:00 5.8 7 Norte 19 Norte 0.2 923 -- 86
2020-11-04 01:00:00 6 5 Norte 21 Norte 0.6 924 -- 87
2020-11-04 00:00:00 6.7 6 Norte 18 Nordeste 0.2 924.3 -- 85
2020-11-03 23:00:00 7.2 8 Nordeste 17 Nordeste 0 924.8 -- 85
2020-11-03 22:00:00 7.5 10 Norte 21 Norte 0.2 925.2 -- 86
2020-11-03 21:00:00 7.9 3 Norte 10 Noroeste 0.2 925.2 -- 91
2020-11-03 20:00:00 8.1 3 Noroeste 15 Norte 0 925.6 -- 90
2020-11-03 19:00:00 8.2 5 Norte 15 Norte 0 925.3 -- 88
2020-11-03 18:00:00 8.6 6 Norte 24 Nordeste 0 925.1 -- 81
2020-11-03 17:00:00 9 7 Norte 27 Noroeste 0 925.1 -- 79
2020-11-03 16:00:00 9.8 12 Norte 46 Nordeste 0 924.7 -- 72
2020-11-03 15:00:00 10.5 16 Norte 39 Nordeste 0 924.7 -- 73
2020-11-03 14:00:00 10.7 15 Nordeste 33 Norte 0 924.8 -- 75
2020-11-03 13:00:00 10.7 16 Norte 31 Nordeste 0 924.8 -- 79
2020-11-03 12:00:00 10.4 12 Norte 23 Norte 0 925.4 -- 84
2020-11-03 11:00:00 10.6 13 Norte 25 Norte 0 925.3 -- 82
2020-11-03 10:00:00 10.7 14 Norte 27 Nordeste 0 924.5 -- 85
2020-11-03 09:00:00 9.8 4 Norte 10 Noroeste 0 923.8 -- 93
2020-11-03 08:00:00 7.6 3 Norte 6 Norte 0 923.1 -- 92
2020-11-03 07:00:00 7.8 4 Sudoeste 5 Sudoeste 0 922.7 -- 90
2020-11-03 06:00:00 8.1 0 Calma 5 Noroeste 0 922.5 -- 89
2020-11-03 05:00:00 8.6 0 Calma 3 Norte 0 922.4 -- 86
2020-11-03 04:00:00 8.9 2 Norte 4 Norte 0 922.2 -- 86
2020-11-03 03:00:00 9.6 2 Este 5 Nordeste 0 922.3 -- 84
2020-11-03 02:00:00 9.8 0 Calma 7 Noroeste 0 922.2 -- 85
2020-11-03 01:00:00 10.4 2 Nordeste 7 Noroeste 0 922.2 -- 81
2020-11-03 00:00:00 10.8 3 Sur 7 Sur 0 922.3 -- 78
2020-11-02 23:00:00 11.1 0 Calma 5 Sudeste 0 922.5 -- 76
2020-11-02 22:00:00 12.6 0 Calma 4 Oeste 0 922.7 -- 74
2020-11-02 21:00:00 13 2 Nordeste 4 Noroeste 0 922.5 -- 71
2020-11-02 20:00:00 14.9 3 Norte 8 Nordeste 0 921.9 -- 66
2020-11-02 19:00:00 17.1 4 Nordeste 8 Norte 0 921.3 -- 61
2020-11-02 18:00:00 19.4 3 Norte 13 Norte 0 920.8 -- 54
2020-11-02 17:00:00 22.1 6 Noroeste 12 Noroeste 0 920.4 -- 43
2020-11-02 16:00:00 22.9 6 Norte 14 Norte 0 920.4 -- 42
2020-11-02 15:00:00 22.4 7 Norte 19 Noroeste 0 920.6 -- 41
2020-11-02 14:00:00 22.8 10 Noroeste 20 Oeste 0 921 -- 40
2020-11-02 13:00:00 20.9 4 Sudoeste 9 Sudoeste 0 921.9 -- 36
2020-11-02 12:00:00 18.2 3 Sudoeste 6 Sudoeste 0 922.6 -- 40
2020-11-02 11:00:00 14.4 5 Sudeste 11 Sur 0 923 -- 47
2020-11-02 10:00:00 10.8 4 Sur 12 Sur 0 923 -- 56
2020-11-02 09:00:00 7.5 9 Sudeste 16 Sudeste 0 923 -- 65
2020-11-02 08:00:00 4 8 Sudeste 14 Sudeste 0 922.5 -- 82
2020-11-02 07:00:00 2.4 3 Sudoeste 6 Sur 0 922.6 -- 89
2020-11-02 06:00:00 2.6 3 Nordeste 9 Sudeste 0 922.4 -- 88
2020-11-02 05:00:00 3.5 7 Sudeste 10 Sudeste 0 922.3 -- 87
2020-11-02 04:00:00 3.3 3 Sudeste 6 Sudeste 0 922.4 -- 86
2020-11-02 03:00:00 4 3 Sudoeste 6 Sur 0 922.8 -- 87
2020-11-02 02:00:00 4.5 5 Sudeste 6 Sudeste 0 922.9 -- 85
2020-11-02 01:00:00 5.3 2 Nordeste 6 Sudeste 0 923.2 -- 85
2020-11-02 00:00:00 6.6 2 Sudeste 7 Sur 0 923.3 -- 79